DucheSS Of Scandinavia — OUZI2 — position and weather

sailwx.info

Track history (hours):
 
Tides and Currents Weather Stations Pressure Air Temp Water Temp Dewpoint Dewpoint Depression Visibility Wind Speed Wind Dir Waves Ship Positions

DucheSS Of Scandinavia

Operator: DFDS A/S

Last reported at 2018-Dec-11 07:30 UTC. Time now 2018-Dec-11 07:47 UTC.
Position N 59°07' E 010°14'.

Length 134 m; draft 5.4 m.

Type: Passenger vessel. MMSI: 219002929.

Date/timePositionNaut miles runAvg speedWind from/ knotsBaromVisibWave heightAir tempDewpointWater temp
2018-Dec-11 07:30N 59°07' E 010°14'0 0.3
2018-Dec-11 07:01N 59°08' E 010°14'1 1.1
2018-Dec-11 06:30N 59°07' E 010°14'1 1.6
2018-Dec-11 05:57N 59°06' E 010°14'0 0.0
2018-Dec-11 05:28N 59°06' E 010°14'0 0.0
2018-Dec-11 04:58N 59°06' E 010°14'0 0.0
2018-Dec-11 04:28N 59°06' E 010°14'0 0.0
2018-Dec-11 03:59N 59°06' E 010°14'0 0.0
2018-Dec-11 03:29N 59°06' E 010°14'0 0.0
2018-Dec-11 02:59N 59°06' E 010°14'0 0.0
2018-Dec-11 02:30N 59°06' E 010°14'0 0.0
2018-Dec-11 02:00N 59°06' E 010°14'0 0.0
2018-Dec-11 01:30N 59°06' E 010°14'0 0.0
2018-Dec-11 00:58N 59°06' E 010°14'0 0.0
2018-Dec-11 00:28N 59°06' E 010°14'0 0.0
2018-Dec-10 23:58N 59°06' E 010°14'0 0.0
2018-Dec-10 23:29N 59°06' E 010°14'0 0.0
2018-Dec-10 22:59N 59°06' E 010°14'0 0.0
2018-Dec-10 22:29N 59°06' E 010°14'0 0.0
2018-Dec-10 22:00N 59°06' E 010°14'0 0.0
2018-Dec-10 21:30N 59°06' E 010°14'0 0.0
2018-Dec-10 21:00N 59°06' E 010°14'0 0.0
2018-Dec-10 20:31N 59°06' E 010°14'1 2.8
2018-Dec-10 20:01N 59°08' E 010°14'3 6.3
2018-Dec-10 19:31N 59°04' E 010°15'713.5
2018-Dec-10 19:00N 59°01' E 010°26'816.6
2018-Dec-10 18:30N 59°01' E 010°42'816.2
2018-Dec-10 18:00N 59°00' E 010°57'815.0
2018-Dec-10 17:30N 58°56' E 011°09'0 0.8
2018-Dec-10 17:00N 58°56' E 011°10'4 8.7
2018-Dec-10 16:31N 58°58' E 011°03'815.5
2018-Dec-10 16:01N 59°01' E 010°49'815.4
2018-Dec-10 15:30N 59°01' E 010°34'714.8
2018-Dec-10 15:00N 59°01' E 010°20'613.0
2018-Dec-10 14:30N 59°06' E 010°14'1 2.2
2018-Dec-10 14:01N 59°08' E 010°14'0 0.0
2018-Dec-10 13:31N 59°08' E 010°14'510.9
2018-Dec-10 13:00N 59°02' E 010°16'714.3
2018-Dec-10 12:30N 59°00' E 010°29'815.0
2018-Dec-10 12:00N 59°01' E 010°44'714.1
2018-Dec-10 11:31N 59°00' E 010°57'714.5
2018-Dec-10 11:00N 58°56' E 011°08'1 1.8
2018-Dec-10 10:31N 58°56' E 011°10'0 0.5
2018-Dec-10 10:00N 58°56' E 011°10'713.3
2018-Dec-10 09:31N 58°60' E 010°59'715.0
2018-Dec-10 09:01N 59°02' E 010°45'714.7
2018-Dec-10 08:31N 59°00' E 010°31'714.7
2018-Dec-10 08:01N 59°01' E 010°17'612.3
2018-Dec-10 07:30N 59°07' E 010°14'0 0.4
2018-Dec-10 07:00N 59°08' E 010°14'1 1.7
2018-Dec-10 06:31N 59°07' E 010°14'1 1.2
2018-Dec-10 05:59N 59°06' E 010°14'0 0.0
2018-Dec-10 05:30N 59°06' E 010°14'0 0.0
2018-Dec-10 05:00N 59°06' E 010°14'0 0.0
2018-Dec-10 04:30N 59°06' E 010°14'0 0.0
2018-Dec-10 03:58N 59°06' E 010°14'0 0.0
2018-Dec-10 02:58N 59°06' E 010°14'0 0.0
2018-Dec-10 02:29N 59°06' E 010°14'0 0.0
2018-Dec-10 01:59N 59°06' E 010°14'0 0.0
2018-Dec-10 01:29N 59°06' E 010°14'0 0.0
2018-Dec-10 01:00N 59°06' E 010°14'0 0.0
2018-Dec-10 00:30N 59°06' E 010°14'0 0.0
2018-Dec-10 00:00N 59°06' E 010°14'0 0.0
2018-Dec-09 23:28N 59°06' E 010°14'0 0.0
2018-Dec-09 22:58N 59°06' E 010°14'0 0.0
2018-Dec-09 22:25N 59°06' E 010°14'0 0.0
2018-Dec-09 21:59N 59°06' E 010°14'0 0.0
2018-Dec-09 21:29N 59°06' E 010°14'0 0.0
2018-Dec-09 20:59N 59°06' E 010°14'0 0.1
2018-Dec-09 20:31N 59°06' E 010°14'1 2.6
2018-Dec-09 19:58N 59°08' E 010°14'510.1
2018-Dec-09 19:31N 59°03' E 010°15'714.1
2018-Dec-09 19:01N 59°01' E 010°28'815.6
2018-Dec-09 18:31N 59°01' E 010°43'815.3
2018-Dec-09 18:01N 58°60' E 010°58'714.5
2018-Dec-09 17:30N 58°56' E 011°09'0 0.7
2018-Dec-09 17:01N 58°56' E 011°10'4 8.8
2018-Dec-09 16:31N 58°58' E 011°02'714.8
2018-Dec-09 16:01N 59°01' E 010°50'714.8
2018-Dec-09 15:31N 59°01' E 010°35'714.3
2018-Dec-09 15:01N 59°01' E 010°21'612.7
2018-Dec-09 14:31N 59°06' E 010°14'2 3.1
2018-Dec-09 14:01N 59°08' E 010°14'0 0.1
2018-Dec-09 13:31N 59°08' E 010°14'611.7
2018-Dec-09 13:01N 59°02' E 010°16'815.5
2018-Dec-09 12:31N 58°60' E 010°31'815.5
2018-Dec-09 12:01N 59°01' E 010°45'815.0
2018-Dec-09 11:31N 58°59' E 010°59'713.1
2018-Dec-09 11:00N 58°56' E 011°10'0 0.1
2018-Dec-09 10:31N 58°56' E 011°10'0 0.2
2018-Dec-09 10:00N 58°56' E 011°10'612.9
2018-Dec-09 09:31N 58°59' E 010°59'714.9
2018-Dec-09 09:01N 59°02' E 010°46'815.0
2018-Dec-09 08:31N 58°60' E 010°31'714.6
2018-Dec-09 08:01N 59°01' E 010°17'612.4
2018-Dec-09 07:30N 59°07' E 010°14'0 0.5
2018-Dec-09 07:01N 59°08' E 010°14'0 0.8
2018-Dec-09 06:30N 59°07' E 010°14'1 1.8
2018-Dec-09 05:56N 59°06' E 010°14'0 0.0
2018-Dec-09 05:30N 59°06' E 010°14'0 0.0
2018-Dec-09 05:00N 59°06' E 010°14'0 0.0
2018-Dec-09 04:30N 59°06' E 010°14'0 0.0
2018-Dec-09 03:58N 59°06' E 010°14'0 0.0
2018-Dec-09 03:28N 59°06' E 010°14'0 0.0
2018-Dec-09 02:58N 59°06' E 010°14'0 0.0
2018-Dec-09 02:29N 59°06' E 010°14'0 0.0
2018-Dec-09 01:56N 59°06' E 010°14'0 0.0
2018-Dec-09 01:29N 59°06' E 010°14'0 0.0
2018-Dec-09 01:00N 59°06' E 010°14'0 0.0
2018-Dec-09 00:30N 59°06' E 010°14'0 0.0
2018-Dec-09 00:00N 59°06' E 010°14'0 0.0
2018-Dec-08 23:28N 59°06' E 010°14'0 0.0
2018-Dec-08 22:58N 59°06' E 010°14'0 0.0
2018-Dec-08 22:28N 59°06' E 010°14'0 0.0
2018-Dec-08 21:59N 59°06' E 010°14'0 0.0
2018-Dec-08 21:29N 59°06' E 010°14'0 0.0
2018-Dec-08 20:59N 59°06' E 010°14'1 1.1
2018-Dec-08 20:30N 59°07' E 010°14'1 1.8
2018-Dec-08 20:00N 59°08' E 010°14'4 8.3
2018-Dec-08 19:31N 59°03' E 010°15'815.1
2018-Dec-08 19:01N 59°01' E 010°29'816.9
2018-Dec-08 18:31N 59°02' E 010°45'816.7
2018-Dec-08 18:01N 58°59' E 011°00'612.1
2018-Dec-08 17:30N 58°56' E 011°10'0 0.0
2018-Dec-08 17:00N 58°56' E 011°10'5 9.3
2018-Dec-08 16:31N 58°58' E 011°02'815.3
2018-Dec-08 16:00N 59°01' E 010°49'815.4
2018-Dec-08 15:30N 59°01' E 010°34'815.2
2018-Dec-08 15:00N 59°01' E 010°19'611.9
2018-Dec-08 14:30N 59°06' E 010°14'1 2.6
2018-Dec-08 14:01N 59°08' E 010°14'0 0.0
2018-Dec-08 13:31N 59°08' E 010°14'510.2
2018-Dec-08 13:01N 59°03' E 010°15'714.0
2018-Dec-08 12:30N 59°01' E 010°28'815.3
2018-Dec-08 12:00N 59°01' E 010°43'714.8
2018-Dec-08 11:30N 58°60' E 010°57'714.8
2018-Dec-08 11:01N 58°56' E 011°09'1 1.2
2018-Dec-08 10:31N 58°56' E 011°10'0 0.9
2018-Dec-08 10:00N 58°56' E 011°09'714.3
2018-Dec-08 09:30N 58°60' E 010°58'815.0
2018-Dec-08 09:00N 59°01' E 010°44'815.0
2018-Dec-08 08:30N 59°00' E 010°29'714.8
2018-Dec-08 08:00N 59°02' E 010°15'510.4
2018-Dec-08 07:30N 59°08' E 010°14'0 0.0
2018-Dec-08 07:00N 59°08' E 010°14'1 2.6
2018-Dec-08 06:30N 59°06' E 010°14'0 0.3
2018-Dec-08 06:00N 59°06' E 010°14'0 0.0
2018-Dec-08 05:28N 59°06' E 010°14'0 0.0
2018-Dec-08 04:58N 59°06' E 010°14'0 0.0
2018-Dec-08 04:28N 59°06' E 010°14'0 0.0
2018-Dec-08 03:59N 59°06' E 010°14'0 0.0
2018-Dec-08 03:29N 59°06' E 010°14'0 0.0
2018-Dec-08 02:59N 59°06' E 010°14'0 0.0
2018-Dec-08 02:30N 59°06' E 010°14'0 0.0
2018-Dec-08 02:00N 59°06' E 010°14'0 0.0
2018-Dec-08 01:30N 59°06' E 010°14'0 0.0
2018-Dec-08 00:58N 59°06' E 010°14'0 0.0
2018-Dec-08 00:28N 59°06' E 010°14'0 0.0
2018-Dec-07 23:58N 59°06' E 010°14'0 0.0
2018-Dec-07 23:29N 59°06' E 010°14'0 0.0
2018-Dec-07 22:59N 59°06' E 010°14'0 0.0
2018-Dec-07 22:30N 59°06' E 010°14'0 0.0
2018-Dec-07 22:00N 59°06' E 010°14'0 0.0
2018-Dec-07 21:30N 59°06' E 010°14'0 0.0
2018-Dec-07 21:00N 59°06' E 010°14'1 1.1
2018-Dec-07 20:30N 59°07' E 010°14'1 1.7
2018-Dec-07 19:59N 59°08' E 010°14'4 9.0
2018-Dec-07 19:30N 59°03' E 010°15'714.4
2018-Dec-07 19:00N 59°01' E 010°28'816.2
2018-Dec-07 18:31N 59°01' E 010°43'816.1
2018-Dec-07 18:01N 58°60' E 010°59'713.8
2018-Dec-07 17:30N 58°56' E 011°10'0 0.1
2018-Dec-07 17:01N 58°56' E 011°10'5 9.2
2018-Dec-07 16:30N 58°58' E 011°02'714.9
2018-Dec-07 16:00N 59°01' E 010°49'714.8
2018-Dec-07 15:30N 59°01' E 010°35'714.9
2018-Dec-07 15:00N 59°01' E 010°21'612.6
2018-Dec-07 14:30N 59°06' E 010°14'1 2.5
2018-Dec-07 14:00N 59°08' E 010°14'0 0.6
2018-Dec-07 13:30N 59°07' E 010°14'611.9
2018-Dec-07 13:00N 59°02' E 010°17'714.2
2018-Dec-07 12:31N 59°01' E 010°30'714.3
2018-Dec-07 12:01N 59°01' E 010°44'713.9
2018-Dec-07 11:31N 59°00' E 010°57'714.2
2018-Dec-07 11:01N 58°56' E 011°08'1 2.1
2018-Dec-07 10:30N 58°56' E 011°10'0 0.3
2018-Dec-07 10:00N 58°56' E 011°10'713.4
2018-Dec-07 09:30N 58°60' E 010°59'714.9
2018-Dec-07 09:00N 59°02' E 010°45'715.0
2018-Dec-07 08:30N 59°00' E 010°31'714.9
2018-Dec-07 08:01N 59°01' E 010°17'612.2
2018-Dec-07 07:30N 59°07' E 010°14'0 0.4
2018-Dec-07 07:00N 59°08' E 010°14'0 0.4
2018-Dec-07 06:30N 59°07' E 010°14'1 2.4
2018-Dec-07 06:00N 59°06' E 010°14'0 0.0
2018-Dec-07 05:28N 59°06' E 010°14'0 0.0
2018-Dec-07 04:58N 59°06' E 010°14'0 0.0
2018-Dec-07 04:28N 59°06' E 010°14'0 0.0
2018-Dec-07 03:59N 59°06' E 010°14'0 0.0
2018-Dec-07 03:29N 59°06' E 010°14'0 0.0
2018-Dec-07 02:30N 59°06' E 010°14'0 0.0
2018-Dec-07 02:00N 59°06' E 010°14'0 0.0
2018-Dec-07 01:30N 59°06' E 010°14'0 0.0
2018-Dec-07 00:58N 59°06' E 010°14'0 0.0
2018-Dec-07 00:28N 59°06' E 010°14'0 0.0
2018-Dec-06 23:58N 59°06' E 010°14'0 0.0
2018-Dec-06 23:29N 59°06' E 010°14'0 0.0
2018-Dec-06 22:59N 59°06' E 010°14'0 0.0
2018-Dec-06 22:29N 59°06' E 010°14'0 0.0
2018-Dec-06 22:00N 59°06' E 010°14'0 0.0
2018-Dec-06 21:30N 59°06' E 010°14'0 0.0
2018-Dec-06 21:00N 59°06' E 010°14'0 0.0
2018-Dec-06 20:31N 59°06' E 010°14'1 2.9
2018-Dec-06 20:01N 59°08' E 010°14'4 8.9
2018-Dec-06 19:31N 59°03' E 010°15'714.5
2018-Dec-06 19:01N 59°01' E 010°28'816.2
2018-Dec-06 18:30N 59°02' E 010°44'816.2
2018-Dec-06 18:01N 58°60' E 010°59'713.3
2018-Dec-06 17:30N 58°56' E 011°10'0 0.0
2018-Dec-06 17:01N 58°56' E 011°10'5 9.2
2018-Dec-06 16:31N 58°58' E 011°02'714.3
2018-Dec-06 16:00N 59°01' E 010°50'714.4
2018-Dec-06 15:31N 59°01' E 010°36'714.6
2018-Dec-06 15:00N 59°01' E 010°22'612.9
2018-Dec-06 14:30N 59°06' E 010°14'2 3.1
2018-Dec-06 14:00N 59°08' E 010°14'0 0.1
2018-Dec-06 13:31N 59°08' E 010°14'611.2
2018-Dec-06 13:01N 59°02' E 010°16'714.2
2018-Dec-06 12:30N 59°00' E 010°29'714.2
2018-Dec-06 12:01N 59°01' E 010°43'714.1
2018-Dec-06 11:31N 59°00' E 010°56'714.6
2018-Dec-06 11:00N 58°56' E 011°08'1 2.3
2018-Dec-06 10:30N 58°56' E 011°10'0 0.5
2018-Dec-06 10:00N 58°56' E 011°10'612.8
2018-Dec-06 09:30N 58°60' E 010°59'714.3
2018-Dec-06 09:01N 59°02' E 010°46'714.6
2018-Dec-06 08:30N 59°01' E 010°32'714.9
2018-Dec-06 08:00N 59°01' E 010°18'612.6
2018-Dec-06 07:31N 59°07' E 010°14'0 0.6
2018-Dec-06 07:00N 59°08' E 010°14'0 0.2
2018-Dec-06 06:30N 59°07' E 010°14'1 2.6
2018-Dec-06 05:59N 59°06' E 010°14'0 0.0
2018-Dec-06 05:30N 59°06' E 010°14'0 0.0
2018-Dec-06 05:00N 59°06' E 010°14'0 0.0
2018-Dec-06 04:30N 59°06' E 010°14'0 0.0
2018-Dec-06 03:58N 59°06' E 010°14'0 0.0
2018-Dec-06 03:28N 59°06' E 010°14'0 0.0
2018-Dec-06 02:29N 59°06' E 010°14'0 0.0
2018-Dec-06 01:59N 59°06' E 010°14'0 0.0
2018-Dec-06 01:29N 59°06' E 010°14'0 0.0
2018-Dec-06 01:00N 59°06' E 010°14'0 0.0
2018-Dec-06 00:30N 59°06' E 010°14'0 0.0
2018-Dec-06 00:00N 59°06' E 010°14'0 0.0
2018-Dec-05 23:28N 59°06' E 010°14'0 0.0
2018-Dec-05 22:58N 59°06' E 010°14'0 0.0
2018-Dec-05 22:28N 59°06' E 010°14'0 0.0
2018-Dec-05 21:59N 59°06' E 010°14'0 0.0
2018-Dec-05 21:29N 59°06' E 010°14'0 0.0
2018-Dec-05 20:59N 59°06' E 010°14'0 0.7
2018-Dec-05 20:31N 59°07' E 010°14'1 2.1
2018-Dec-05 20:00N 59°08' E 010°14'5 9.1
2018-Dec-05 19:31N 59°03' E 010°15'714.4
2018-Dec-05 19:00N 59°01' E 010°28'815.6
2018-Dec-05 18:30N 59°01' E 010°43'815.6
2018-Dec-05 18:01N 58°60' E 010°58'714.4
2018-Dec-05 17:31N 58°56' E 011°10'0 0.3
2018-Dec-05 17:00N 58°56' E 011°10'5 9.1
2018-Dec-05 16:31N 58°58' E 011°03'714.6
2018-Dec-05 16:01N 59°01' E 010°50'714.9
2018-Dec-05 15:31N 59°01' E 010°35'714.7
2018-Dec-05 15:01N 59°01' E 010°21'612.7
2018-Dec-05 14:30N 59°06' E 010°14'1 2.9
2018-Dec-05 14:01N 59°08' E 010°14'0 0.6
2018-Dec-05 13:30N 59°07' E 010°14'612.3
2018-Dec-05 13:00N 59°02' E 010°18'815.1
2018-Dec-05 12:30N 59°00' E 010°32'815.1
2018-Dec-05 12:01N 59°02' E 010°47'714.9
2018-Dec-05 11:31N 58°59' E 011°00'611.8
2018-Dec-05 11:01N 58°56' E 011°10'0 0.0
2018-Dec-05 10:31N 58°56' E 011°10'0 0.4
2018-Dec-05 10:00N 58°56' E 011°10'612.9
2018-Dec-05 09:30N 58°59' E 010°59'714.7
2018-Dec-05 09:00N 59°02' E 010°46'815.1
2018-Dec-05 08:31N 59°00' E 010°31'815.0
2018-Dec-05 08:00N 59°01' E 010°17'612.6
2018-Dec-05 07:30N 59°07' E 010°14'0 0.4
2018-Dec-05 07:01N 59°08' E 010°14'0 0.3
2018-Dec-05 06:31N 59°07' E 010°14'1 2.3
2018-Dec-05 05:58N 59°06' E 010°14'0 0.0
2018-Dec-05 05:28N 59°06' E 010°14'0 0.0
2018-Dec-05 04:58N 59°06' E 010°14'0 0.0
2018-Dec-05 04:29N 59°06' E 010°14'0 0.0
2018-Dec-05 03:59N 59°06' E 010°14'0 0.0
2018-Dec-05 03:26N 59°06' E 010°14'0 0.0
2018-Dec-05 03:00N 59°06' E 010°14'0 0.0
2018-Dec-05 02:30N 59°06' E 010°14'0 0.0
2018-Dec-05 02:00N 59°06' E 010°14'0 0.0
2018-Dec-05 01:28N 59°06' E 010°14'0 0.0
2018-Dec-05 00:58N 59°06' E 010°14'0 0.0
2018-Dec-05 00:28N 59°06' E 010°14'0 0.0
2018-Dec-04 23:59N 59°06' E 010°14'0 0.0
2018-Dec-04 23:29N 59°06' E 010°14'0 0.0
2018-Dec-04 22:59N 59°06' E 010°14'0 0.0
2018-Dec-04 22:30N 59°06' E 010°14'0 0.0
2018-Dec-04 22:00N 59°06' E 010°14'0 0.0
2018-Dec-04 21:30N 59°06' E 010°14'0 0.0
2018-Dec-04 21:01N 59°06' E 010°14'1 2.9
2018-Dec-04 20:30N 59°08' E 010°14'0 0.2
2018-Dec-04 20:01N 59°07' E 010°14'611.6
2018-Dec-04 19:30N 59°02' E 010°16'815.3
2018-Dec-04 19:00N 59°00' E 010°31'815.9
2018-Dec-04 18:30N 59°02' E 010°46'815.4
2018-Dec-04 18:01N 58°59' E 010°60'612.5
2018-Dec-04 17:31N 58°56' E 011°10'0 0.0
2018-Dec-04 17:00N 58°56' E 011°10'4 8.2
2018-Dec-04 16:31N 58°57' E 011°03'815.0
2018-Dec-04 16:00N 59°01' E 010°50'815.2
2018-Dec-04 15:30N 58°59' E 010°36'714.4
2018-Dec-04 15:00N 59°00' E 010°22'713.8
2018-Dec-04 14:30N 59°06' E 010°14'2 3.8
2018-Dec-04 14:00N 59°08' E 010°14'0 0.4
2018-Dec-04 13:30N 59°07' E 010°14'611.6
2018-Dec-04 13:00N 59°02' E 010°16'714.5
2018-Dec-04 12:30N 58°60' E 010°29'815.3
2018-Dec-04 12:00N 59°02' E 010°44'714.8
2018-Dec-04 11:31N 58°60' E 010°58'714.3
2018-Dec-04 11:00N 58°56' E 011°09'1 1.1
2018-Dec-04 10:31N 58°56' E 011°10'0 0.1
2018-Dec-04 10:00N 58°56' E 011°10'713.2
2018-Dec-04 09:30N 58°59' E 010°59'815.2
2018-Dec-04 09:00N 59°02' E 010°45'714.8
2018-Dec-04 08:31N 59°00' E 010°31'714.6
2018-Dec-04 08:00N 59°01' E 010°17'612.6
2018-Dec-04 07:30N 59°07' E 010°14'0 0.4
2018-Dec-04 07:01N 59°08' E 010°14'0 0.6
2018-Dec-04 06:30N 59°07' E 010°14'1 2.2
2018-Dec-04 06:00N 59°06' E 010°14'0 0.0
2018-Dec-04 05:30N 59°06' E 010°14'0 0.0
2018-Dec-04 05:00N 59°06' E 010°14'0 0.0
2018-Dec-04 04:31N 59°06' E 010°14'0 0.0
2018-Dec-04 03:58N 59°06' E 010°14'0 0.0
2018-Dec-04 03:28N 59°06' E 010°14'0 0.0
2018-Dec-04 02:59N 59°06' E 010°14'0 0.0
2018-Dec-04 02:29N 59°06' E 010°14'0 0.0
2018-Dec-04 01:59N 59°06' E 010°14'0 0.0
2018-Dec-04 01:30N 59°06' E 010°14'0 0.0
2018-Dec-04 01:00N 59°06' E 010°14'0 0.0
2018-Dec-04 00:30N 59°06' E 010°14'0 0.0
2018-Dec-04 00:01N 59°06' E 010°14'0 0.0
2018-Dec-03 23:28N 59°06' E 010°14'0 0.0
2018-Dec-03 22:58N 59°06' E 010°14'0 0.0
2018-Dec-03 22:29N 59°06' E 010°14'0 0.0
2018-Dec-03 21:59N 59°06' E 010°14'0 0.0
2018-Dec-03 21:29N 59°06' E 010°14'0 0.0
2018-Dec-03 21:01N 59°06' E 010°14'1 2.6
2018-Dec-03 20:28N 59°08' E 010°14'0 0.0
2018-Dec-03 19:58N 59°08' E 010°14'5 9.9
2018-Dec-03 19:31N 59°03' E 010°15'714.1
2018-Dec-03 19:01N 59°01' E 010°28'815.6
2018-Dec-03 18:30N 59°01' E 010°43'815.7
2018-Dec-03 18:01N 58°60' E 010°58'714.3
2018-Dec-03 17:30N 58°56' E 011°10'0 0.5
2018-Dec-03 17:00N 58°56' E 011°10'4 8.6
2018-Dec-03 16:30N 58°58' E 011°03'714.3
2018-Dec-03 16:00N 59°01' E 010°51'714.6
2018-Dec-03 15:30N 59°01' E 010°36'714.9
2018-Dec-03 15:01N 59°01' E 010°22'612.9
2018-Dec-03 14:31N 59°06' E 010°14'2 3.3
2018-Dec-03 14:01N 59°08' E 010°14'1 1.2
2018-Dec-03 13:30N 59°07' E 010°14'612.0
2018-Dec-03 13:01N 59°01' E 010°18'713.9
2018-Dec-03 12:30N 59°00' E 010°31'713.4
2018-Dec-03 12:00N 59°02' E 010°44'713.9
2018-Dec-03 11:31N 59°00' E 010°57'714.5
2018-Dec-03 11:00N 58°56' E 011°09'1 1.6
2018-Dec-03 10:30N 58°56' E 011°10'0 0.7
2018-Dec-03 10:01N 58°56' E 011°09'612.7
2018-Dec-03 09:31N 58°59' E 010°59'714.1
2018-Dec-03 09:00N 59°02' E 010°46'714.6
2018-Dec-03 08:30N 59°01' E 010°32'714.8
2018-Dec-03 08:01N 59°01' E 010°18'612.5
2018-Dec-03 07:30N 59°07' E 010°14'0 0.7
2018-Dec-03 07:00N 59°08' E 010°14'0 0.5
2018-Dec-03 06:30N 59°07' E 010°14'1 2.3
2018-Dec-03 06:00N 59°06' E 010°14'0 0.0
2018-Dec-03 05:30N 59°06' E 010°14'0 0.0
2018-Dec-03 04:58N 59°06' E 010°14'0 0.0
2018-Dec-03 04:28N 59°06' E 010°14'0 0.0
2018-Dec-03 03:58N 59°06' E 010°14'0 0.0
2018-Dec-03 03:29N 59°06' E 010°14'0 0.0
2018-Dec-03 02:59N 59°06' E 010°14'0 0.0
2018-Dec-03 02:29N 59°06' E 010°14'0 0.0
2018-Dec-03 02:00N 59°06' E 010°14'0 0.0
2018-Dec-03 01:30N 59°06' E 010°14'0 0.0
2018-Dec-03 01:00N 59°06' E 010°14'0 0.0
2018-Dec-03 00:28N 59°06' E 010°14'0 0.0
2018-Dec-02 23:58N 59°06' E 010°14'0 0.0
2018-Dec-02 23:28N 59°06' E 010°14'0 0.0
2018-Dec-02 22:59N 59°06' E 010°14'0 0.0
2018-Dec-02 22:29N 59°06' E 010°14'0 0.0
2018-Dec-02 21:59N 59°06' E 010°14'0 0.0
2018-Dec-02 21:30N 59°06' E 010°14'0 0.0
2018-Dec-02 21:00N 59°06' E 010°14'0 0.0
2018-Dec-02 20:30N 59°06' E 010°14'1 2.9
2018-Dec-02 20:01N 59°08' E 010°14'3 6.3
2018-Dec-02 19:31N 59°04' E 010°15'713.8
2018-Dec-02 19:01N 59°01' E 010°26'815.5
2018-Dec-02 18:31N 59°01' E 010°41'815.9
2018-Dec-02 18:01N 59°00' E 010°56'815.4
2018-Dec-02 17:31N 58°56' E 011°09'1 1.7
2018-Dec-02 17:00N 58°56' E 011°10'4 8.1
2018-Dec-02 16:31N 58°57' E 011°03'714.2
2018-Dec-02 16:01N 59°01' E 010°51'714.2
2018-Dec-02 15:30N 59°01' E 010°37'815.2
2018-Dec-02 15:01N 59°01' E 010°22'612.8
2018-Dec-02 14:30N 59°06' E 010°14'2 3.9
2018-Dec-02 14:01N 59°08' E 010°14'0 0.1
2018-Dec-02 13:31N 59°08' E 010°14'611.9
2018-Dec-02 13:00N 59°02' E 010°16'815.1
2018-Dec-02 12:31N 59°01' E 010°31'714.4
2018-Dec-02 12:01N 59°02' E 010°45'714.3
2018-Dec-02 11:31N 58°60' E 010°58'714.1
2018-Dec-02 11:01N 58°56' E 011°09'0 0.7
2018-Dec-02 10:30N 58°56' E 011°10'0 0.4
2018-Dec-02 10:00N 58°56' E 011°10'612.7
2018-Dec-02 09:31N 58°59' E 010°60'714.6
2018-Dec-02 09:00N 59°02' E 010°46'816.2
2018-Dec-02 08:30N 59°00' E 010°30'815.2
2018-Dec-02 08:01N 59°02' E 010°16'611.4
2018-Dec-02 07:30N 59°07' E 010°14'0 0.3
2018-Dec-02 07:01N 59°08' E 010°14'0 0.9
2018-Dec-02 06:30N 59°07' E 010°14'1 1.9
2018-Dec-02 05:59N 59°06' E 010°14'0 0.0
2018-Dec-02 05:30N 59°06' E 010°14'0 0.0
2018-Dec-02 05:00N 59°06' E 010°14'0 0.0
2018-Dec-02 04:30N 59°06' E 010°14'0 0.0
2018-Dec-02 03:58N 59°06' E 010°14'0 0.0
2018-Dec-02 03:28N 59°06' E 010°14'0 0.0
2018-Dec-02 02:58N 59°06' E 010°14'0 0.0
2018-Dec-02 02:26N 59°06' E 010°14'0 0.0
2018-Dec-02 01:59N 59°06' E 010°14'0 0.0
2018-Dec-02 01:29N 59°06' E 010°14'0 0.0
2018-Dec-02 01:00N 59°06' E 010°14'0 0.0
2018-Dec-02 00:30N 59°06' E 010°14'0 0.0
2018-Dec-02 00:00N 59°06' E 010°14'0 0.0
2018-Dec-01 23:28N 59°06' E 010°14'0 0.0
2018-Dec-01 22:58N 59°06' E 010°14'0 0.0
2018-Dec-01 22:28N 59°06' E 010°14'0 0.0
2018-Dec-01 21:59N 59°06' E 010°14'0 0.0
2018-Dec-01 21:29N 59°06' E 010°14'0 0.0
2018-Dec-01 20:59N 59°06' E 010°14'1 2.7
2018-Dec-01 20:30N 59°07' E 010°14'0 0.1
2018-Dec-01 20:00N 59°08' E 010°14'612.2
2018-Dec-01 19:31N 59°02' E 010°16'815.5
2018-Dec-01 19:01N 58°60' E 010°31'815.4
2018-Dec-01 18:31N 59°02' E 010°46'815.7
2018-Dec-01 18:01N 58°59' E 011°00'612.3
2018-Dec-01 17:31N 58°56' E 011°10'0 0.0
2018-Dec-01 17:01N 58°56' E 011°10'4 8.1
2018-Dec-01 16:31N 58°58' E 011°03'715.0
2018-Dec-01 16:01N 59°01' E 010°50'815.2
2018-Dec-01 15:31N 59°00' E 010°36'815.6
2018-Dec-01 15:01N 59°00' E 010°21'714.1
2018-Dec-01 14:31N 59°06' E 010°14'1 2.6
2018-Dec-01 14:01N 59°08' E 010°14'0 0.0
2018-Dec-01 13:31N 59°08' E 010°14'611.2
2018-Dec-01 13:01N 59°02' E 010°16'714.9
2018-Dec-01 12:31N 58°60' E 010°29'714.2
2018-Dec-01 12:01N 59°01' E 010°43'714.4
2018-Dec-01 11:31N 59°00' E 010°57'815.7
2018-Dec-01 11:01N 58°56' E 011°09'1 1.1
2018-Dec-01 10:30N 58°56' E 011°10'0 0.5
2018-Dec-01 10:00N 58°56' E 011°10'713.5
2018-Dec-01 09:31N 58°60' E 010°59'815.3
2018-Dec-01 09:01N 59°01' E 010°45'816.8
2018-Dec-01 08:31N 58°59' E 010°29'815.5
2018-Dec-01 08:00N 59°03' E 010°15'510.0
2018-Dec-01 07:31N 59°08' E 010°14'  
Track history (hours):
 
Tides and Currents Weather Stations Pressure Air Temp Water Temp Dewpoint Dewpoint Depression Visibility Wind Speed Wind Dir Waves Ship Positions

DucheSS Of Scandinavia

Operator: DFDS A/S

Last reported at 2018-Dec-11 07:30 UTC. Time now 2018-Dec-11 07:47 UTC.
Position N 59°07' E 010°14'.

Length 134 m; draft 5.4 m.

Type: Passenger vessel. MMSI: 219002929.

Date/timePositionNaut miles runAvg speedWind from/ knotsBaromVisibWave heightAir tempDewpointWater temp
2018-Dec-11 07:30N 59°07' E 010°14'0 0.3
2018-Dec-11 07:01N 59°08' E 010°14'1 1.1
2018-Dec-11 06:30N 59°07' E 010°14'1 1.6
2018-Dec-11 05:57N 59°06' E 010°14'0 0.0
2018-Dec-11 05:28N 59°06' E 010°14'0 0.0
2018-Dec-11 04:58N 59°06' E 010°14'0 0.0
2018-Dec-11 04:28N 59°06' E 010°14'0 0.0
2018-Dec-11 03:59N 59°06' E 010°14'0 0.0
2018-Dec-11 03:29N 59°06' E 010°14'0 0.0
2018-Dec-11 02:59N 59°06' E 010°14'0 0.0
2018-Dec-11 02:30N 59°06' E 010°14'0 0.0
2018-Dec-11 02:00N 59°06' E 010°14'0 0.0
2018-Dec-11 01:30N 59°06' E 010°14'0 0.0
2018-Dec-11 00:58N 59°06' E 010°14'0 0.0
2018-Dec-11 00:28N 59°06' E 010°14'0 0.0
2018-Dec-10 23:58N 59°06' E 010°14'0 0.0
2018-Dec-10 23:29N 59°06' E 010°14'0 0.0
2018-Dec-10 22:59N 59°06' E 010°14'0 0.0
2018-Dec-10 22:29N 59°06' E 010°14'0 0.0
2018-Dec-10 22:00N 59°06' E 010°14'0 0.0
2018-Dec-10 21:30N 59°06' E 010°14'0 0.0
2018-Dec-10 21:00N 59°06' E 010°14'0 0.0
2018-Dec-10 20:31N 59°06' E 010°14'1 2.8
2018-Dec-10 20:01N 59°08' E 010°14'3 6.3
2018-Dec-10 19:31N 59°04' E 010°15'713.5
2018-Dec-10 19:00N 59°01' E 010°26'816.6
2018-Dec-10 18:30N 59°01' E 010°42'816.2
2018-Dec-10 18:00N 59°00' E 010°57'815.0
2018-Dec-10 17:30N 58°56' E 011°09'0 0.8
2018-Dec-10 17:00N 58°56' E 011°10'4 8.7
2018-Dec-10 16:31N 58°58' E 011°03'815.5
2018-Dec-10 16:01N 59°01' E 010°49'815.4
2018-Dec-10 15:30N 59°01' E 010°34'714.8
2018-Dec-10 15:00N 59°01' E 010°20'613.0
2018-Dec-10 14:30N 59°06' E 010°14'1 2.2
2018-Dec-10 14:01N 59°08' E 010°14'0 0.0
2018-Dec-10 13:31N 59°08' E 010°14'510.9
2018-Dec-10 13:00N 59°02' E 010°16'714.3
2018-Dec-10 12:30N 59°00' E 010°29'815.0
2018-Dec-10 12:00N 59°01' E 010°44'714.1
2018-Dec-10 11:31N 59°00' E 010°57'714.5
2018-Dec-10 11:00N 58°56' E 011°08'1 1.8
2018-Dec-10 10:31N 58°56' E 011°10'0 0.5
2018-Dec-10 10:00N 58°56' E 011°10'713.3
2018-Dec-10 09:31N 58°60' E 010°59'715.0
2018-Dec-10 09:01N 59°02' E 010°45'714.7
2018-Dec-10 08:31N 59°00' E 010°31'714.7
2018-Dec-10 08:01N 59°01' E 010°17'612.3
2018-Dec-10 07:30N 59°07' E 010°14'0 0.4
2018-Dec-10 07:00N 59°08' E 010°14'1 1.7
2018-Dec-10 06:31N 59°07' E 010°14'1 1.2
2018-Dec-10 05:59N 59°06' E 010°14'0 0.0
2018-Dec-10 05:30N 59°06' E 010°14'0 0.0
2018-Dec-10 05:00N 59°06' E 010°14'0 0.0
2018-Dec-10 04:30N 59°06' E 010°14'0 0.0
2018-Dec-10 03:58N 59°06' E 010°14'0 0.0
2018-Dec-10 02:58N 59°06' E 010°14'0 0.0
2018-Dec-10 02:29N 59°06' E 010°14'0 0.0
2018-Dec-10 01:59N 59°06' E 010°14'0 0.0
2018-Dec-10 01:29N 59°06' E 010°14'0 0.0
2018-Dec-10 01:00N 59°06' E 010°14'0 0.0
2018-Dec-10 00:30N 59°06' E 010°14'0 0.0
2018-Dec-10 00:00N 59°06' E 010°14'0 0.0
2018-Dec-09 23:28N 59°06' E 010°14'0 0.0
2018-Dec-09 22:58N 59°06' E 010°14'0 0.0
2018-Dec-09 22:25N 59°06' E 010°14'0 0.0
2018-Dec-09 21:59N 59°06' E 010°14'0 0.0
2018-Dec-09 21:29N 59°06' E 010°14'0 0.0
2018-Dec-09 20:59N 59°06' E 010°14'0 0.1
2018-Dec-09 20:31N 59°06' E 010°14'1 2.6
2018-Dec-09 19:58N 59°08' E 010°14'510.1
2018-Dec-09 19:31N 59°03' E 010°15'714.1
2018-Dec-09 19:01N 59°01' E 010°28'815.6
2018-Dec-09 18:31N 59°01' E 010°43'815.3
2018-Dec-09 18:01N 58°60' E 010°58'714.5
2018-Dec-09 17:30N 58°56' E 011°09'0 0.7
2018-Dec-09 17:01N 58°56' E 011°10'4 8.8
2018-Dec-09 16:31N 58°58' E 011°02'714.8
2018-Dec-09 16:01N 59°01' E 010°50'714.8
2018-Dec-09 15:31N 59°01' E 010°35'714.3
2018-Dec-09 15:01N 59°01' E 010°21'612.7
2018-Dec-09 14:31N 59°06' E 010°14'2 3.1
2018-Dec-09 14:01N 59°08' E 010°14'0 0.1
2018-Dec-09 13:31N 59°08' E 010°14'611.7
2018-Dec-09 13:01N 59°02' E 010°16'815.5
2018-Dec-09 12:31N 58°60' E 010°31'815.5
2018-Dec-09 12:01N 59°01' E 010°45'815.0
2018-Dec-09 11:31N 58°59' E 010°59'713.1
2018-Dec-09 11:00N 58°56' E 011°10'0 0.1
2018-Dec-09 10:31N 58°56' E 011°10'0 0.2
2018-Dec-09 10:00N 58°56' E 011°10'612.9
2018-Dec-09 09:31N 58°59' E 010°59'714.9
2018-Dec-09 09:01N 59°02' E 010°46'815.0
2018-Dec-09 08:31N 58°60' E 010°31'714.6
2018-Dec-09 08:01N 59°01' E 010°17'612.4
2018-Dec-09 07:30N 59°07' E 010°14'0 0.5
2018-Dec-09 07:01N 59°08' E 010°14'0 0.8
2018-Dec-09 06:30N 59°07' E 010°14'1 1.8
2018-Dec-09 05:56N 59°06' E 010°14'0 0.0
2018-Dec-09 05:30N 59°06' E 010°14'0 0.0
2018-Dec-09 05:00N 59°06' E 010°14'0 0.0
2018-Dec-09 04:30N 59°06' E 010°14'0 0.0
2018-Dec-09 03:58N 59°06' E 010°14'0 0.0
2018-Dec-09 03:28N 59°06' E 010°14'0 0.0
2018-Dec-09 02:58N 59°06' E 010°14'0 0.0
2018-Dec-09 02:29N 59°06' E 010°14'0 0.0
2018-Dec-09 01:56N 59°06' E 010°14'0 0.0
2018-Dec-09 01:29N 59°06' E 010°14'0 0.0
2018-Dec-09 01:00N 59°06' E 010°14'0 0.0
2018-Dec-09 00:30N 59°06' E 010°14'0 0.0
2018-Dec-09 00:00N 59°06' E 010°14'0 0.0
2018-Dec-08 23:28N 59°06' E 010°14'0 0.0
2018-Dec-08 22:58N 59°06' E 010°14'0 0.0
2018-Dec-08 22:28N 59°06' E 010°14'0 0.0
2018-Dec-08 21:59N 59°06' E 010°14'0 0.0
2018-Dec-08 21:29N 59°06' E 010°14'0 0.0
2018-Dec-08 20:59N 59°06' E 010°14'1 1.1
2018-Dec-08 20:30N 59°07' E 010°14'1 1.8
2018-Dec-08 20:00N 59°08' E 010°14'4 8.3
2018-Dec-08 19:31N 59°03' E 010°15'815.1
2018-Dec-08 19:01N 59°01' E 010°29'816.9
2018-Dec-08 18:31N 59°02' E 010°45'816.7
2018-Dec-08 18:01N 58°59' E 011°00'612.1
2018-Dec-08 17:30N 58°56' E 011°10'0 0.0
2018-Dec-08 17:00N 58°56' E 011°10'5 9.3
2018-Dec-08 16:31N 58°58' E 011°02'815.3
2018-Dec-08 16:00N 59°01' E 010°49'815.4
2018-Dec-08 15:30N 59°01' E 010°34'815.2
2018-Dec-08 15:00N 59°01' E 010°19'611.9
2018-Dec-08 14:30N 59°06' E 010°14'1 2.6
2018-Dec-08 14:01N 59°08' E 010°14'0 0.0
2018-Dec-08 13:31N 59°08' E 010°14'510.2
2018-Dec-08 13:01N 59°03' E 010°15'714.0
2018-Dec-08 12:30N 59°01' E 010°28'815.3
2018-Dec-08 12:00N 59°01' E 010°43'714.8
2018-Dec-08 11:30N 58°60' E 010°57'714.8
2018-Dec-08 11:01N 58°56' E 011°09'1 1.2
2018-Dec-08 10:31N 58°56' E 011°10'0 0.9
2018-Dec-08 10:00N 58°56' E 011°09'714.3
2018-Dec-08 09:30N 58°60' E 010°58'815.0
2018-Dec-08 09:00N 59°01' E 010°44'815.0
2018-Dec-08 08:30N 59°00' E 010°29'714.8
2018-Dec-08 08:00N 59°02' E 010°15'510.4
2018-Dec-08 07:30N 59°08' E 010°14'0 0.0
2018-Dec-08 07:00N 59°08' E 010°14'1 2.6
2018-Dec-08 06:30N 59°06' E 010°14'0 0.3
2018-Dec-08 06:00N 59°06' E 010°14'0 0.0
2018-Dec-08 05:28N 59°06' E 010°14'0 0.0
2018-Dec-08 04:58N 59°06' E 010°14'0 0.0
2018-Dec-08 04:28N 59°06' E 010°14'0 0.0
2018-Dec-08 03:59N 59°06' E 010°14'0 0.0
2018-Dec-08 03:29N 59°06' E 010°14'0 0.0
2018-Dec-08 02:59N 59°06' E 010°14'0 0.0
2018-Dec-08 02:30N 59°06' E 010°14'0 0.0
2018-Dec-08 02:00N 59°06' E 010°14'0 0.0
2018-Dec-08 01:30N 59°06' E 010°14'0 0.0
2018-Dec-08 00:58N 59°06' E 010°14'0 0.0
2018-Dec-08 00:28N 59°06' E 010°14'0 0.0
2018-Dec-07 23:58N 59°06' E 010°14'0 0.0
2018-Dec-07 23:29N 59°06' E 010°14'0 0.0
2018-Dec-07 22:59N 59°06' E 010°14'0 0.0
2018-Dec-07 22:30N 59°06' E 010°14'0 0.0
2018-Dec-07 22:00N 59°06' E 010°14'0 0.0
2018-Dec-07 21:30N 59°06' E 010°14'0 0.0
2018-Dec-07 21:00N 59°06' E 010°14'1 1.1
2018-Dec-07 20:30N 59°07' E 010°14'1 1.7
2018-Dec-07 19:59N 59°08' E 010°14'4 9.0
2018-Dec-07 19:30N 59°03' E 010°15'714.4
2018-Dec-07 19:00N 59°01' E 010°28'816.2
2018-Dec-07 18:31N 59°01' E 010°43'816.1
2018-Dec-07 18:01N 58°60' E 010°59'713.8
2018-Dec-07 17:30N 58°56' E 011°10'0 0.1
2018-Dec-07 17:01N 58°56' E 011°10'5 9.2
2018-Dec-07 16:30N 58°58' E 011°02'714.9
2018-Dec-07 16:00N 59°01' E 010°49'714.8
2018-Dec-07 15:30N 59°01' E 010°35'714.9
2018-Dec-07 15:00N 59°01' E 010°21'612.6
2018-Dec-07 14:30N 59°06' E 010°14'1 2.5
2018-Dec-07 14:00N 59°08' E 010°14'0 0.6
2018-Dec-07 13:30N 59°07' E 010°14'611.9
2018-Dec-07 13:00N 59°02' E 010°17'714.2
2018-Dec-07 12:31N 59°01' E 010°30'714.3
2018-Dec-07 12:01N 59°01' E 010°44'713.9
2018-Dec-07 11:31N 59°00' E 010°57'714.2
2018-Dec-07 11:01N 58°56' E 011°08'1 2.1
2018-Dec-07 10:30N 58°56' E 011°10'0 0.3
2018-Dec-07 10:00N 58°56' E 011°10'713.4
2018-Dec-07 09:30N 58°60' E 010°59'714.9
2018-Dec-07 09:00N 59°02' E 010°45'715.0
2018-Dec-07 08:30N 59°00' E 010°31'714.9
2018-Dec-07 08:01N 59°01' E 010°17'612.2
2018-Dec-07 07:30N 59°07' E 010°14'0 0.4
2018-Dec-07 07:00N 59°08' E 010°14'0 0.4
2018-Dec-07 06:30N 59°07' E 010°14'1 2.4
2018-Dec-07 06:00N 59°06' E 010°14'0 0.0
2018-Dec-07 05:28N 59°06' E 010°14'0 0.0
2018-Dec-07 04:58N 59°06' E 010°14'0 0.0
2018-Dec-07 04:28N 59°06' E 010°14'0 0.0
2018-Dec-07 03:59N 59°06' E 010°14'0 0.0
2018-Dec-07 03:29N 59°06' E 010°14'0 0.0
2018-Dec-07 02:30N 59°06' E 010°14'0 0.0
2018-Dec-07 02:00N 59°06' E 010°14'0 0.0
2018-Dec-07 01:30N 59°06' E 010°14'0 0.0
2018-Dec-07 00:58N 59°06' E 010°14'0 0.0
2018-Dec-07 00:28N 59°06' E 010°14'0 0.0
2018-Dec-06 23:58N 59°06' E 010°14'0 0.0
2018-Dec-06 23:29N 59°06' E 010°14'0 0.0
2018-Dec-06 22:59N 59°06' E 010°14'0 0.0
2018-Dec-06 22:29N 59°06' E 010°14'0 0.0
2018-Dec-06 22:00N 59°06' E 010°14'0 0.0
2018-Dec-06 21:30N 59°06' E 010°14'0 0.0
2018-Dec-06 21:00N 59°06' E 010°14'0 0.0
2018-Dec-06 20:31N 59°06' E 010°14'1 2.9
2018-Dec-06 20:01N 59°08' E 010°14'4 8.9
2018-Dec-06 19:31N 59°03' E 010°15'714.5
2018-Dec-06 19:01N 59°01' E 010°28'816.2
2018-Dec-06 18:30N 59°02' E 010°44'816.2
2018-Dec-06 18:01N 58°60' E 010°59'713.3
2018-Dec-06 17:30N 58°56' E 011°10'0 0.0
2018-Dec-06 17:01N 58°56' E 011°10'5 9.2
2018-Dec-06 16:31N 58°58' E 011°02'714.3
2018-Dec-06 16:00N 59°01' E 010°50'714.4
2018-Dec-06 15:31N 59°01' E 010°36'714.6
2018-Dec-06 15:00N 59°01' E 010°22'612.9
2018-Dec-06 14:30N 59°06' E 010°14'2 3.1
2018-Dec-06 14:00N 59°08' E 010°14'0 0.1
2018-Dec-06 13:31N 59°08' E 010°14'611.2
2018-Dec-06 13:01N 59°02' E 010°16'714.2
2018-Dec-06 12:30N 59°00' E 010°29'714.2
2018-Dec-06 12:01N 59°01' E 010°43'714.1
2018-Dec-06 11:31N 59°00' E 010°56'714.6
2018-Dec-06 11:00N 58°56' E 011°08'1 2.3
2018-Dec-06 10:30N 58°56' E 011°10'0 0.5
2018-Dec-06 10:00N 58°56' E 011°10'612.8
2018-Dec-06 09:30N 58°60' E 010°59'714.3
2018-Dec-06 09:01N 59°02' E 010°46'714.6
2018-Dec-06 08:30N 59°01' E 010°32'714.9
2018-Dec-06 08:00N 59°01' E 010°18'612.6
2018-Dec-06 07:31N 59°07' E 010°14'0 0.6
2018-Dec-06 07:00N 59°08' E 010°14'0 0.2
2018-Dec-06 06:30N 59°07' E 010°14'1 2.6
2018-Dec-06 05:59N 59°06' E 010°14'0 0.0
2018-Dec-06 05:30N 59°06' E 010°14'0 0.0
2018-Dec-06 05:00N 59°06' E 010°14'0 0.0
2018-Dec-06 04:30N 59°06' E 010°14'0 0.0
2018-Dec-06 03:58N 59°06' E 010°14'0 0.0
2018-Dec-06 03:28N 59°06' E 010°14'0 0.0
2018-Dec-06 02:29N 59°06' E 010°14'0 0.0
2018-Dec-06 01:59N 59°06' E 010°14'0 0.0
2018-Dec-06 01:29N 59°06' E 010°14'0 0.0
2018-Dec-06 01:00N 59°06' E 010°14'0 0.0
2018-Dec-06 00:30N 59°06' E 010°14'0 0.0
2018-Dec-06 00:00N 59°06' E 010°14'0 0.0
2018-Dec-05 23:28N 59°06' E 010°14'0 0.0
2018-Dec-05 22:58N 59°06' E 010°14'0 0.0
2018-Dec-05 22:28N 59°06' E 010°14'0 0.0
2018-Dec-05 21:59N 59°06' E 010°14'0 0.0
2018-Dec-05 21:29N 59°06' E 010°14'0 0.0
2018-Dec-05 20:59N 59°06' E 010°14'0 0.7
2018-Dec-05 20:31N 59°07' E 010°14'1 2.1
2018-Dec-05 20:00N 59°08' E 010°14'5 9.1
2018-Dec-05 19:31N 59°03' E 010°15'714.4
2018-Dec-05 19:00N 59°01' E 010°28'815.6
2018-Dec-05 18:30N 59°01' E 010°43'815.6
2018-Dec-05 18:01N 58°60' E 010°58'714.4
2018-Dec-05 17:31N 58°56' E 011°10'0 0.3
2018-Dec-05 17:00N 58°56' E 011°10'5 9.1
2018-Dec-05 16:31N 58°58' E 011°03'714.6
2018-Dec-05 16:01N 59°01' E 010°50'714.9
2018-Dec-05 15:31N 59°01' E 010°35'714.7
2018-Dec-05 15:01N 59°01' E 010°21'612.7
2018-Dec-05 14:30N 59°06' E 010°14'1 2.9
2018-Dec-05 14:01N 59°08' E 010°14'0 0.6
2018-Dec-05 13:30N 59°07' E 010°14'612.3
2018-Dec-05 13:00N 59°02' E 010°18'815.1
2018-Dec-05 12:30N 59°00' E 010°32'815.1
2018-Dec-05 12:01N 59°02' E 010°47'714.9
2018-Dec-05 11:31N 58°59' E 011°00'611.8
2018-Dec-05 11:01N 58°56' E 011°10'0 0.0
2018-Dec-05 10:31N 58°56' E 011°10'0 0.4
2018-Dec-05 10:00N 58°56' E 011°10'612.9
2018-Dec-05 09:30N 58°59' E 010°59'714.7
2018-Dec-05 09:00N 59°02' E 010°46'815.1
2018-Dec-05 08:31N 59°00' E 010°31'815.0
2018-Dec-05 08:00N 59°01' E 010°17'612.6
2018-Dec-05 07:30N 59°07' E 010°14'0 0.4
2018-Dec-05 07:01N 59°08' E 010°14'0 0.3
2018-Dec-05 06:31N 59°07' E 010°14'1 2.3
2018-Dec-05 05:58N 59°06' E 010°14'0 0.0
2018-Dec-05 05:28N 59°06' E 010°14'0 0.0
2018-Dec-05 04:58N 59°06' E 010°14'0 0.0
2018-Dec-05 04:29N 59°06' E 010°14'0 0.0
2018-Dec-05 03:59N 59°06' E 010°14'0 0.0
2018-Dec-05 03:26N 59°06' E 010°14'0 0.0
2018-Dec-05 03:00N 59°06' E 010°14'0 0.0
2018-Dec-05 02:30N 59°06' E 010°14'0 0.0
2018-Dec-05 02:00N 59°06' E 010°14'0 0.0
2018-Dec-05 01:28N 59°06' E 010°14'0 0.0
2018-Dec-05 00:58N 59°06' E 010°14'0 0.0
2018-Dec-05 00:28N 59°06' E 010°14'0 0.0
2018-Dec-04 23:59N 59°06' E 010°14'0 0.0
2018-Dec-04 23:29N 59°06' E 010°14'0 0.0
2018-Dec-04 22:59N 59°06' E 010°14'0 0.0
2018-Dec-04 22:30N 59°06' E 010°14'0 0.0
2018-Dec-04 22:00N 59°06' E 010°14'0 0.0
2018-Dec-04 21:30N 59°06' E 010°14'0 0.0
2018-Dec-04 21:01N 59°06' E 010°14'1 2.9
2018-Dec-04 20:30N 59°08' E 010°14'0 0.2
2018-Dec-04 20:01N 59°07' E 010°14'611.6
2018-Dec-04 19:30N 59°02' E 010°16'815.3
2018-Dec-04 19:00N 59°00' E 010°31'815.9
2018-Dec-04 18:30N 59°02' E 010°46'815.4
2018-Dec-04 18:01N 58°59' E 010°60'612.5
2018-Dec-04 17:31N 58°56' E 011°10'0 0.0
2018-Dec-04 17:00N 58°56' E 011°10'4 8.2
2018-Dec-04 16:31N 58°57' E 011°03'815.0
2018-Dec-04 16:00N 59°01' E 010°50'815.2
2018-Dec-04 15:30N 58°59' E 010°36'714.4
2018-Dec-04 15:00N 59°00' E 010°22'713.8
2018-Dec-04 14:30N 59°06' E 010°14'2 3.8
2018-Dec-04 14:00N 59°08' E 010°14'0 0.4
2018-Dec-04 13:30N 59°07' E 010°14'611.6
2018-Dec-04 13:00N 59°02' E 010°16'714.5
2018-Dec-04 12:30N 58°60' E 010°29'815.3
2018-Dec-04 12:00N 59°02' E 010°44'714.8
2018-Dec-04 11:31N 58°60' E 010°58'714.3
2018-Dec-04 11:00N 58°56' E 011°09'1 1.1
2018-Dec-04 10:31N 58°56' E 011°10'0 0.1
2018-Dec-04 10:00N 58°56' E 011°10'713.2
2018-Dec-04 09:30N 58°59' E 010°59'815.2
2018-Dec-04 09:00N 59°02' E 010°45'714.8
2018-Dec-04 08:31N 59°00' E 010°31'714.6
2018-Dec-04 08:00N 59°01' E 010°17'612.6
2018-Dec-04 07:30N 59°07' E 010°14'0 0.4
2018-Dec-04 07:01N 59°08' E 010°14'0 0.6
2018-Dec-04 06:30N 59°07' E 010°14'1 2.2
2018-Dec-04 06:00N 59°06' E 010°14'0 0.0
2018-Dec-04 05:30N 59°06' E 010°14'0 0.0
2018-Dec-04 05:00N 59°06' E 010°14'0 0.0
2018-Dec-04 04:31N 59°06' E 010°14'0 0.0
2018-Dec-04 03:58N 59°06' E 010°14'0 0.0
2018-Dec-04 03:28N 59°06' E 010°14'0 0.0
2018-Dec-04 02:59N 59°06' E 010°14'0 0.0
2018-Dec-04 02:29N 59°06' E 010°14'0 0.0
2018-Dec-04 01:59N 59°06' E 010°14'0 0.0
2018-Dec-04 01:30N 59°06' E 010°14'0 0.0
2018-Dec-04 01:00N 59°06' E 010°14'0 0.0
2018-Dec-04 00:30N 59°06' E 010°14'0 0.0
2018-Dec-04 00:01N 59°06' E 010°14'0 0.0
2018-Dec-03 23:28N 59°06' E 010°14'0 0.0
2018-Dec-03 22:58N 59°06' E 010°14'0 0.0
2018-Dec-03 22:29N 59°06' E 010°14'0 0.0
2018-Dec-03 21:59N 59°06' E 010°14'0 0.0
2018-Dec-03 21:29N 59°06' E 010°14'0 0.0
2018-Dec-03 21:01N 59°06' E 010°14'1 2.6
2018-Dec-03 20:28N 59°08' E 010°14'0 0.0
2018-Dec-03 19:58N 59°08' E 010°14'5 9.9
2018-Dec-03 19:31N 59°03' E 010°15'714.1
2018-Dec-03 19:01N 59°01' E 010°28'815.6
2018-Dec-03 18:30N 59°01' E 010°43'815.7
2018-Dec-03 18:01N 58°60' E 010°58'714.3
2018-Dec-03 17:30N 58°56' E 011°10'0 0.5
2018-Dec-03 17:00N 58°56' E 011°10'4 8.6
2018-Dec-03 16:30N 58°58' E 011°03'714.3
2018-Dec-03 16:00N 59°01' E 010°51'714.6
2018-Dec-03 15:30N 59°01' E 010°36'714.9
2018-Dec-03 15:01N 59°01' E 010°22'612.9
2018-Dec-03 14:31N 59°06' E 010°14'2 3.3
2018-Dec-03 14:01N 59°08' E 010°14'1 1.2
2018-Dec-03 13:30N 59°07' E 010°14'612.0
2018-Dec-03 13:01N 59°01' E 010°18'713.9
2018-Dec-03 12:30N 59°00' E 010°31'713.4
2018-Dec-03 12:00N 59°02' E 010°44'713.9
2018-Dec-03 11:31N 59°00' E 010°57'714.5
2018-Dec-03 11:00N 58°56' E 011°09'1 1.6
2018-Dec-03 10:30N 58°56' E 011°10'0 0.7
2018-Dec-03 10:01N 58°56' E 011°09'612.7
2018-Dec-03 09:31N 58°59' E 010°59'714.1
2018-Dec-03 09:00N 59°02' E 010°46'714.6
2018-Dec-03 08:30N 59°01' E 010°32'714.8
2018-Dec-03 08:01N 59°01' E 010°18'612.5
2018-Dec-03 07:30N 59°07' E 010°14'0 0.7
2018-Dec-03 07:00N 59°08' E 010°14'0 0.5
2018-Dec-03 06:30N 59°07' E 010°14'1 2.3
2018-Dec-03 06:00N 59°06' E 010°14'0 0.0
2018-Dec-03 05:30N 59°06' E 010°14'0 0.0
2018-Dec-03 04:58N 59°06' E 010°14'0 0.0
2018-Dec-03 04:28N 59°06' E 010°14'0 0.0
2018-Dec-03 03:58N 59°06' E 010°14'0 0.0
2018-Dec-03 03:29N 59°06' E 010°14'0 0.0
2018-Dec-03 02:59N 59°06' E 010°14'0 0.0
2018-Dec-03 02:29N 59°06' E 010°14'0 0.0
2018-Dec-03 02:00N 59°06' E 010°14'0 0.0
2018-Dec-03 01:30N 59°06' E 010°14'0 0.0
2018-Dec-03 01:00N 59°06' E 010°14'0 0.0
2018-Dec-03 00:28N 59°06' E 010°14'0 0.0
2018-Dec-02 23:58N 59°06' E 010°14'0 0.0
2018-Dec-02 23:28N 59°06' E 010°14'0 0.0
2018-Dec-02 22:59N 59°06' E 010°14'0 0.0
2018-Dec-02 22:29N 59°06' E 010°14'0 0.0
2018-Dec-02 21:59N 59°06' E 010°14'0 0.0
2018-Dec-02 21:30N 59°06' E 010°14'0 0.0
2018-Dec-02 21:00N 59°06' E 010°14'0 0.0
2018-Dec-02 20:30N 59°06' E 010°14'1 2.9
2018-Dec-02 20:01N 59°08' E 010°14'3 6.3
2018-Dec-02 19:31N 59°04' E 010°15'713.8
2018-Dec-02 19:01N 59°01' E 010°26'815.5
2018-Dec-02 18:31N 59°01' E 010°41'815.9
2018-Dec-02 18:01N 59°00' E 010°56'815.4
2018-Dec-02 17:31N 58°56' E 011°09'1 1.7
2018-Dec-02 17:00N 58°56' E 011°10'4 8.1
2018-Dec-02 16:31N 58°57' E 011°03'714.2
2018-Dec-02 16:01N 59°01' E 010°51'714.2
2018-Dec-02 15:30N 59°01' E 010°37'815.2
2018-Dec-02 15:01N 59°01' E 010°22'612.8
2018-Dec-02 14:30N 59°06' E 010°14'2 3.9
2018-Dec-02 14:01N 59°08' E 010°14'0 0.1
2018-Dec-02 13:31N 59°08' E 010°14'611.9
2018-Dec-02 13:00N 59°02' E 010°16'815.1
2018-Dec-02 12:31N 59°01' E 010°31'714.4
2018-Dec-02 12:01N 59°02' E 010°45'714.3
2018-Dec-02 11:31N 58°60' E 010°58'714.1
2018-Dec-02 11:01N 58°56' E 011°09'0 0.7
2018-Dec-02 10:30N 58°56' E 011°10'0 0.4
2018-Dec-02 10:00N 58°56' E 011°10'612.7
2018-Dec-02 09:31N 58°59' E 010°60'714.6
2018-Dec-02 09:00N 59°02' E 010°46'816.2
2018-Dec-02 08:30N 59°00' E 010°30'815.2
2018-Dec-02 08:01N 59°02' E 010°16'611.4
2018-Dec-02 07:30N 59°07' E 010°14'0 0.3
2018-Dec-02 07:01N 59°08' E 010°14'0 0.9
2018-Dec-02 06:30N 59°07' E 010°14'1 1.9
2018-Dec-02 05:59N 59°06' E 010°14'0 0.0
2018-Dec-02 05:30N 59°06' E 010°14'0 0.0
2018-Dec-02 05:00N 59°06' E 010°14'0 0.0
2018-Dec-02 04:30N 59°06' E 010°14'0 0.0
2018-Dec-02 03:58N 59°06' E 010°14'0 0.0
2018-Dec-02 03:28N 59°06' E 010°14'0 0.0
2018-Dec-02 02:58N 59°06' E 010°14'0 0.0
2018-Dec-02 02:26N 59°06' E 010°14'0 0.0
2018-Dec-02 01:59N 59°06' E 010°14'0 0.0
2018-Dec-02 01:29N 59°06' E 010°14'0 0.0
2018-Dec-02 01:00N 59°06' E 010°14'0 0.0
2018-Dec-02 00:30N 59°06' E 010°14'0 0.0
2018-Dec-02 00:00N 59°06' E 010°14'0 0.0
2018-Dec-01 23:28N 59°06' E 010°14'0 0.0
2018-Dec-01 22:58N 59°06' E 010°14'0 0.0
2018-Dec-01 22:28N 59°06' E 010°14'0 0.0
2018-Dec-01 21:59N 59°06' E 010°14'0 0.0
2018-Dec-01 21:29N 59°06' E 010°14'0 0.0
2018-Dec-01 20:59N 59°06' E 010°14'1 2.7
2018-Dec-01 20:30N 59°07' E 010°14'0 0.1
2018-Dec-01 20:00N 59°08' E 010°14'612.2
2018-Dec-01 19:31N 59°02' E 010°16'815.5
2018-Dec-01 19:01N 58°60' E 010°31'815.4
2018-Dec-01 18:31N 59°02' E 010°46'815.7
2018-Dec-01 18:01N 58°59' E 011°00'612.3
2018-Dec-01 17:31N 58°56' E 011°10'0 0.0
2018-Dec-01 17:01N 58°56' E 011°10'4 8.1
2018-Dec-01 16:31N 58°58' E 011°03'715.0
2018-Dec-01 16:01N 59°01' E 010°50'815.2
2018-Dec-01 15:31N 59°00' E 010°36'815.6
2018-Dec-01 15:01N 59°00' E 010°21'714.1
2018-Dec-01 14:31N 59°06' E 010°14'1 2.6
2018-Dec-01 14:01N 59°08' E 010°14'0 0.0
2018-Dec-01 13:31N 59°08' E 010°14'611.2
2018-Dec-01 13:01N 59°02' E 010°16'714.9
2018-Dec-01 12:31N 58°60' E 010°29'714.2
2018-Dec-01 12:01N 59°01' E 010°43'714.4
2018-Dec-01 11:31N 59°00' E 010°57'815.7
2018-Dec-01 11:01N 58°56' E 011°09'1 1.1
2018-Dec-01 10:30N 58°56' E 011°10'0 0.5
2018-Dec-01 10:00N 58°56' E 011°10'713.5
2018-Dec-01 09:31N 58°60' E 010°59'815.3
2018-Dec-01 09:01N 59°01' E 010°45'816.8
2018-Dec-01 08:31N 58°59' E 010°29'815.5
2018-Dec-01 08:00N 59°03' E 010°15'510.0
2018-Dec-01 07:31N 59°08' E 010°14'  

Dump ship's entire track history